sensor_id;sensor_type;location;lat;lon;timestamp;P1;durP1;ratioP1;P2;durP2;ratioP2
45730;SDS011;31440;48.584;13.460;2023-03-03T00:02:49;15.15;;;8.65;;
45730;SDS011;31440;48.584;13.460;2023-03-03T00:05:53;12.02;;;8.75;;
45730;SDS011;31440;48.584;13.460;2023-03-03T00:08:58;15.40;;;7.57;;
45730;SDS011;31440;48.584;13.460;2023-03-03T00:12:11;14.13;;;7.85;;
45730;SDS011;31440;48.584;13.460;2023-03-03T00:15:24;17.45;;;8.05;;
45730;SDS011;31440;48.584;13.460;2023-03-03T00:18:30;17.58;;;8.05;;
45730;SDS011;31440;48.584;13.460;2023-03-03T00:24:44;17.08;;;8.55;;
45730;SDS011;31440;48.584;13.460;2023-03-03T00:27:49;16.73;;;9.00;;
45730;SDS011;31440;48.584;13.460;2023-03-03T00:30:54;13.10;;;7.50;;
45730;SDS011;31440;48.584;13.460;2023-03-03T00:34:23;17.60;;;8.75;;
45730;SDS011;31440;48.584;13.460;2023-03-03T00:37:32;17.70;;;9.02;;
45730;SDS011;31440;48.584;13.460;2023-03-03T00:40:39;16.75;;;8.02;;
45730;SDS011;31440;48.584;13.460;2023-03-03T00:43:44;16.67;;;9.63;;
45730;SDS011;31440;48.584;13.460;2023-03-03T00:46:49;16.75;;;8.55;;
45730;SDS011;31440;48.584;13.460;2023-03-03T00:49:55;20.17;;;10.10;;
45730;SDS011;31440;48.584;13.460;2023-03-03T00:53:21;23.33;;;10.88;;
45730;SDS011;31440;48.584;13.460;2023-03-03T00:56:27;20.38;;;10.07;;
45730;SDS011;31440;48.584;13.460;2023-03-03T00:59:33;22.40;;;10.88;;
45730;SDS011;31440;48.584;13.460;2023-03-03T01:02:37;21.83;;;10.35;;
45730;SDS011;31440;48.584;13.460;2023-03-03T01:05:42;19.33;;;9.93;;
45730;SDS011;31440;48.584;13.460;2023-03-03T01:08:46;20.33;;;10.25;;
45730;SDS011;31440;48.584;13.460;2023-03-03T01:11:51;23.35;;;10.88;;
45730;SDS011;31440;48.584;13.460;2023-03-03T01:14:55;19.13;;;9.05;;
45730;SDS011;31440;48.584;13.460;2023-03-03T01:18:00;16.08;;;8.65;;
45730;SDS011;31440;48.584;13.460;2023-03-03T01:21:05;19.60;;;10.73;;
45730;SDS011;31440;48.584;13.460;2023-03-03T01:24:09;18.63;;;9.98;;
45730;SDS011;31440;48.584;13.460;2023-03-03T01:27:14;21.92;;;11.18;;
45730;SDS011;31440;48.584;13.460;2023-03-03T01:30:19;18.85;;;11.15;;
45730;SDS011;31440;48.584;13.460;2023-03-03T01:33:23;19.58;;;9.60;;
45730;SDS011;31440;48.584;13.460;2023-03-03T01:36:28;23.55;;;10.55;;
45730;SDS011;31440;48.584;13.460;2023-03-03T01:39:33;17.77;;;9.75;;
45730;SDS011;31440;48.584;13.460;2023-03-03T01:42:37;25.05;;;11.13;;
45730;SDS011;31440;48.584;13.460;2023-03-03T01:48:55;18.80;;;10.45;;
45730;SDS011;31440;48.584;13.460;2023-03-03T01:52:12;26.02;;;12.50;;
45730;SDS011;31440;48.584;13.460;2023-03-03T01:55:24;23.27;;;12.85;;
45730;SDS011;31440;48.584;13.460;2023-03-03T01:58:43;25.52;;;12.88;;
45730;SDS011;31440;48.584;13.460;2023-03-03T02:01:52;24.90;;;14.75;;
45730;SDS011;31440;48.584;13.460;2023-03-03T02:04:59;31.85;;;15.63;;
45730;SDS011;31440;48.584;13.460;2023-03-03T02:08:04;33.22;;;16.88;;
45730;SDS011;31440;48.584;13.460;2023-03-03T02:11:12;28.77;;;14.57;;
45730;SDS011;31440;48.584;13.460;2023-03-03T02:14:17;35.53;;;17.27;;
45730;SDS011;31440;48.584;13.460;2023-03-03T02:17:22;27.90;;;16.35;;
45730;SDS011;31440;48.584;13.460;2023-03-03T02:20:31;40.03;;;18.55;;
45730;SDS011;31440;48.584;13.460;2023-03-03T02:24:06;39.95;;;17.65;;
45730;SDS011;31440;48.584;13.460;2023-03-03T02:27:16;33.05;;;17.38;;
45730;SDS011;31440;48.584;13.460;2023-03-03T02:30:21;36.28;;;18.50;;
45730;SDS011;31440;48.584;13.460;2023-03-03T02:33:27;33.47;;;17.95;;
45730;SDS011;31440;48.584;13.460;2023-03-03T02:36:34;38.72;;;17.52;;
45730;SDS011;31440;48.584;13.460;2023-03-03T02:39:41;37.75;;;19.25;;
45730;SDS011;31440;48.584;13.460;2023-03-03T02:42:47;38.08;;;19.70;;
45730;SDS011;31440;48.584;13.460;2023-03-03T02:45:56;36.50;;;18.88;;
45730;SDS011;31440;48.584;13.460;2023-03-03T02:49:02;42.50;;;18.52;;
45730;SDS011;31440;48.584;13.460;2023-03-03T02:52:09;39.70;;;19.92;;
45730;SDS011;31440;48.584;13.460;2023-03-03T02:55:17;39.92;;;20.20;;
45730;SDS011;31440;48.584;13.460;2023-03-03T02:58:21;41.10;;;20.02;;
45730;SDS011;31440;48.584;13.460;2023-03-03T03:01:26;47.83;;;21.25;;
45730;SDS011;31440;48.584;13.460;2023-03-03T03:04:33;44.22;;;20.13;;
45730;SDS011;31440;48.584;13.460;2023-03-03T03:07:37;40.00;;;20.02;;
45730;SDS011;31440;48.584;13.460;2023-03-03T03:10:43;44.65;;;21.17;;
45730;SDS011;31440;48.584;13.460;2023-03-03T03:13:48;45.70;;;21.60;;
45730;SDS011;31440;48.584;13.460;2023-03-03T03:16:52;42.38;;;20.23;;
45730;SDS011;31440;48.584;13.460;2023-03-03T03:19:57;42.97;;;20.35;;
45730;SDS011;31440;48.584;13.460;2023-03-03T03:23:02;52.47;;;22.17;;
45730;SDS011;31440;48.584;13.460;2023-03-03T03:26:07;45.25;;;20.88;;
45730;SDS011;31440;48.584;13.460;2023-03-03T03:32:18;45.08;;;20.23;;
45730;SDS011;31440;48.584;13.460;2023-03-03T03:35:23;56.72;;;24.52;;
45730;SDS011;31440;48.584;13.460;2023-03-03T03:38:28;48.92;;;22.55;;
45730;SDS011;31440;48.584;13.460;2023-03-03T03:41:35;47.25;;;22.58;;
45730;SDS011;31440;48.584;13.460;2023-03-03T03:44:40;49.95;;;23.80;;
45730;SDS011;31440;48.584;13.460;2023-03-03T03:47:45;49.65;;;22.85;;
45730;SDS011;31440;48.584;13.460;2023-03-03T03:50:51;55.90;;;22.92;;
45730;SDS011;31440;48.584;13.460;2023-03-03T03:53:57;53.35;;;21.17;;
45730;SDS011;31440;48.584;13.460;2023-03-03T03:57:02;44.08;;;22.00;;
45730;SDS011;31440;48.584;13.460;2023-03-03T04:00:08;56.85;;;24.85;;
45730;SDS011;31440;48.584;13.460;2023-03-03T04:03:17;53.38;;;25.08;;
45730;SDS011;31440;48.584;13.460;2023-03-03T04:06:24;54.25;;;24.17;;
45730;SDS011;31440;48.584;13.460;2023-03-03T04:09:29;53.97;;;24.23;;
45730;SDS011;31440;48.584;13.460;2023-03-03T04:15:48;60.92;;;24.95;;
45730;SDS011;31440;48.584;13.460;2023-03-03T04:18:53;54.65;;;23.30;;
45730;SDS011;31440;48.584;13.460;2023-03-03T04:21:58;46.92;;;21.10;;
45730;SDS011;31440;48.584;13.460;2023-03-03T04:25:03;49.83;;;22.00;;
45730;SDS011;31440;48.584;13.460;2023-03-03T04:28:14;47.97;;;21.65;;
45730;SDS011;31440;48.584;13.460;2023-03-03T04:31:20;58.80;;;25.30;;
45730;SDS011;31440;48.584;13.460;2023-03-03T04:34:25;52.53;;;24.05;;
45730;SDS011;31440;48.584;13.460;2023-03-03T04:37:30;57.03;;;25.23;;
45730;SDS011;31440;48.584;13.460;2023-03-03T04:40:35;51.72;;;23.80;;
45730;SDS011;31440;48.584;13.460;2023-03-03T04:43:40;44.20;;;20.23;;
45730;SDS011;31440;48.584;13.460;2023-03-03T04:46:45;51.65;;;22.73;;
45730;SDS011;31440;48.584;13.460;2023-03-03T04:52:57;54.33;;;25.00;;
45730;SDS011;31440;48.584;13.460;2023-03-03T04:56:01;55.42;;;24.52;;
45730;SDS011;31440;48.584;13.460;2023-03-03T04:59:07;57.88;;;25.60;;
45730;SDS011;31440;48.584;13.460;2023-03-03T05:02:11;63.58;;;26.52;;
45730;SDS011;31440;48.584;13.460;2023-03-03T05:05:16;65.93;;;27.42;;
45730;SDS011;31440;48.584;13.460;2023-03-03T05:08:21;51.47;;;23.83;;
45730;SDS011;31440;48.584;13.460;2023-03-03T05:11:25;61.72;;;26.23;;
45730;SDS011;31440;48.584;13.460;2023-03-03T05:14:30;60.60;;;23.95;;
45730;SDS011;31440;48.584;13.460;2023-03-03T05:17:35;50.17;;;23.33;;
45730;SDS011;31440;48.584;13.460;2023-03-03T05:20:40;51.45;;;23.63;;
45730;SDS011;31440;48.584;13.460;2023-03-03T05:23:45;55.50;;;25.27;;
45730;SDS011;31440;48.584;13.460;2023-03-03T05:26:49;49.25;;;22.73;;
45730;SDS011;31440;48.584;13.460;2023-03-03T05:29:54;47.45;;;22.67;;
45730;SDS011;31440;48.584;13.460;2023-03-03T05:33:01;43.25;;;18.75;;
45730;SDS011;31440;48.584;13.460;2023-03-03T05:36:06;44.47;;;19.58;;
45730;SDS011;31440;48.584;13.460;2023-03-03T05:39:11;34.58;;;17.35;;
45730;SDS011;31440;48.584;13.460;2023-03-03T05:42:15;54.05;;;22.33;;
45730;SDS011;31440;48.584;13.460;2023-03-03T05:45:20;52.65;;;22.38;;
45730;SDS011;31440;48.584;13.460;2023-03-03T05:48:24;43.70;;;20.95;;
45730;SDS011;31440;48.584;13.460;2023-03-03T05:51:29;44.72;;;21.63;;
45730;SDS011;31440;48.584;13.460;2023-03-03T05:54:35;44.70;;;21.52;;
45730;SDS011;31440;48.584;13.460;2023-03-03T05:57:39;45.70;;;22.83;;
45730;SDS011;31440;48.584;13.460;2023-03-03T06:00:44;46.75;;;22.95;;
45730;SDS011;31440;48.584;13.460;2023-03-03T06:03:49;53.45;;;24.00;;
45730;SDS011;31440;48.584;13.460;2023-03-03T06:06:53;46.35;;;20.98;;
45730;SDS011;31440;48.584;13.460;2023-03-03T06:09:58;54.67;;;21.48;;
45730;SDS011;31440;48.584;13.460;2023-03-03T06:13:03;44.90;;;22.30;;
45730;SDS011;31440;48.584;13.460;2023-03-03T06:16:07;51.03;;;23.45;;
45730;SDS011;31440;48.584;13.460;2023-03-03T06:19:12;50.63;;;21.80;;
45730;SDS011;31440;48.584;13.460;2023-03-03T06:22:17;40.20;;;20.23;;
45730;SDS011;31440;48.584;13.460;2023-03-03T06:25:22;45.00;;;20.98;;
45730;SDS011;31440;48.584;13.460;2023-03-03T06:31:32;48.60;;;21.95;;
45730;SDS011;31440;48.584;13.460;2023-03-03T06:34:37;42.38;;;20.88;;
45730;SDS011;31440;48.584;13.460;2023-03-03T06:37:41;54.20;;;22.90;;
45730;SDS011;31440;48.584;13.460;2023-03-03T06:40:46;49.47;;;23.38;;
45730;SDS011;31440;48.584;13.460;2023-03-03T06:43:52;40.58;;;19.27;;
45730;SDS011;31440;48.584;13.460;2023-03-03T06:46:56;47.38;;;21.98;;
45730;SDS011;31440;48.584;13.460;2023-03-03T06:50:01;45.78;;;21.08;;
45730;SDS011;31440;48.584;13.460;2023-03-03T06:53:10;41.60;;;20.30;;
45730;SDS011;31440;48.584;13.460;2023-03-03T06:56:17;46.58;;;20.95;;
45730;SDS011;31440;48.584;13.460;2023-03-03T06:59:22;57.53;;;23.73;;
45730;SDS011;31440;48.584;13.460;2023-03-03T07:02:26;47.75;;;22.95;;
45730;SDS011;31440;48.584;13.460;2023-03-03T07:05:31;44.83;;;20.35;;
45730;SDS011;31440;48.584;13.460;2023-03-03T07:08:37;42.08;;;20.38;;
45730;SDS011;31440;48.584;13.460;2023-03-03T07:11:43;43.55;;;20.60;;
45730;SDS011;31440;48.584;13.460;2023-03-03T07:15:01;42.13;;;19.65;;
45730;SDS011;31440;48.584;13.460;2023-03-03T07:21:40;35.70;;;15.77;;
45730;SDS011;31440;48.584;13.460;2023-03-03T07:24:48;30.17;;;15.38;;
45730;SDS011;31440;48.584;13.460;2023-03-03T07:27:59;27.38;;;14.63;;
45730;SDS011;31440;48.584;13.460;2023-03-03T07:31:35;33.28;;;18.55;;
45730;SDS011;31440;48.584;13.460;2023-03-03T07:34:43;34.83;;;17.83;;
45730;SDS011;31440;48.584;13.460;2023-03-03T07:37:51;30.02;;;15.48;;
45730;SDS011;31440;48.584;13.460;2023-03-03T07:40:56;36.75;;;18.83;;
45730;SDS011;31440;48.584;13.460;2023-03-03T07:44:08;45.28;;;19.58;;
45730;SDS011;31440;48.584;13.460;2023-03-03T07:47:18;46.17;;;20.20;;
45730;SDS011;31440;48.584;13.460;2023-03-03T07:50:27;57.17;;;24.15;;
45730;SDS011;31440;48.584;13.460;2023-03-03T07:53:35;54.45;;;22.35;;
45730;SDS011;31440;48.584;13.460;2023-03-03T07:56:41;43.53;;;21.13;;
45730;SDS011;31440;48.584;13.460;2023-03-03T07:59:49;48.65;;;22.13;;
45730;SDS011;31440;48.584;13.460;2023-03-03T08:03:09;42.78;;;21.02;;
45730;SDS011;31440;48.584;13.460;2023-03-03T08:09:43;48.55;;;22.27;;
45730;SDS011;31440;48.584;13.460;2023-03-03T08:16:01;43.85;;;21.08;;
45730;SDS011;31440;48.584;13.460;2023-03-03T08:22:32;44.67;;;22.17;;
45730;SDS011;31440;48.584;13.460;2023-03-03T08:25:39;51.17;;;23.40;;
45730;SDS011;31440;48.584;13.460;2023-03-03T08:28:45;48.17;;;21.92;;
45730;SDS011;31440;48.584;13.460;2023-03-03T08:31:50;37.95;;;19.45;;
45730;SDS011;31440;48.584;13.460;2023-03-03T08:34:54;43.55;;;19.35;;
45730;SDS011;31440;48.584;13.460;2023-03-03T08:37:59;49.53;;;23.50;;
45730;SDS011;31440;48.584;13.460;2023-03-03T08:41:04;47.38;;;22.48;;
45730;SDS011;31440;48.584;13.460;2023-03-03T08:44:09;42.83;;;20.27;;
45730;SDS011;31440;48.584;13.460;2023-03-03T08:47:14;49.47;;;22.92;;
45730;SDS011;31440;48.584;13.460;2023-03-03T08:50:19;46.55;;;22.15;;
45730;SDS011;31440;48.584;13.460;2023-03-03T08:53:24;39.00;;;20.75;;
45730;SDS011;31440;48.584;13.460;2023-03-03T08:56:29;46.63;;;21.42;;
45730;SDS011;31440;48.584;13.460;2023-03-03T08:59:34;38.05;;;20.92;;
45730;SDS011;31440;48.584;13.460;2023-03-03T09:02:42;45.22;;;22.17;;
45730;SDS011;31440;48.584;13.460;2023-03-03T09:05:48;44.67;;;22.27;;
45730;SDS011;31440;48.584;13.460;2023-03-03T09:08:52;43.47;;;22.13;;
45730;SDS011;31440;48.584;13.460;2023-03-03T09:12:13;38.42;;;19.10;;
45730;SDS011;31440;48.584;13.460;2023-03-03T09:15:29;46.75;;;22.85;;
45730;SDS011;31440;48.584;13.460;2023-03-03T09:18:37;43.30;;;22.90;;
45730;SDS011;31440;48.584;13.460;2023-03-03T09:21:42;43.10;;;22.92;;
45730;SDS011;31440;48.584;13.460;2023-03-03T09:24:46;44.17;;;20.65;;
45730;SDS011;31440;48.584;13.460;2023-03-03T09:30:59;42.95;;;22.52;;
45730;SDS011;31440;48.584;13.460;2023-03-03T09:34:13;46.17;;;23.13;;
45730;SDS011;31440;48.584;13.460;2023-03-03T09:37:28;41.13;;;22.20;;
45730;SDS011;31440;48.584;13.460;2023-03-03T09:57:16;45.47;;;23.75;;
45730;SDS011;31440;48.584;13.460;2023-03-03T10:11:00;50.42;;;23.85;;
45730;SDS011;31440;48.584;13.460;2023-03-03T10:21:15;46.17;;;22.85;;
45730;SDS011;31440;48.584;13.460;2023-03-03T10:24:28;47.97;;;25.80;;
45730;SDS011;31440;48.584;13.460;2023-03-03T10:45:16;46.17;;;23.63;;
45730;SDS011;31440;48.584;13.460;2023-03-03T10:55:35;48.50;;;24.23;;
45730;SDS011;31440;48.584;13.460;2023-03-03T10:58:47;50.80;;;26.17;;
45730;SDS011;31440;48.584;13.460;2023-03-03T11:05:31;49.85;;;24.60;;
45730;SDS011;31440;48.584;13.460;2023-03-03T11:08:43;45.22;;;22.10;;
45730;SDS011;31440;48.584;13.460;2023-03-03T11:12:03;39.72;;;21.85;;
45730;SDS011;31440;48.584;13.460;2023-03-03T11:19:16;42.78;;;23.40;;
45730;SDS011;31440;48.584;13.460;2023-03-03T11:32:37;37.90;;;21.63;;
45730;SDS011;31440;48.584;13.460;2023-03-03T11:36:10;38.45;;;21.73;;
45730;SDS011;31440;48.584;13.460;2023-03-03T11:39:22;39.67;;;22.60;;
45730;SDS011;31440;48.584;13.460;2023-03-03T11:46:17;39.65;;;23.20;;
45730;SDS011;31440;48.584;13.460;2023-03-03T11:49:35;38.10;;;22.92;;
45730;SDS011;31440;48.584;13.460;2023-03-03T11:53:04;40.50;;;24.15;;
45730;SDS011;31440;48.584;13.460;2023-03-03T11:56:33;44.17;;;22.77;;
45730;SDS011;31440;48.584;13.460;2023-03-03T12:06:31;41.42;;;22.90;;
45730;SDS011;31440;48.584;13.460;2023-03-03T12:23:35;38.92;;;22.55;;
45730;SDS011;31440;48.584;13.460;2023-03-03T12:26:53;35.40;;;19.63;;
45730;SDS011;31440;48.584;13.460;2023-03-03T12:40:25;33.47;;;20.40;;
45730;SDS011;31440;48.584;13.460;2023-03-03T12:47:03;38.35;;;21.80;;
45730;SDS011;31440;48.584;13.460;2023-03-03T12:50:29;32.97;;;19.92;;
45730;SDS011;31440;48.584;13.460;2023-03-03T12:57:08;36.63;;;20.23;;
45730;SDS011;31440;48.584;13.460;2023-03-03T13:03:34;39.90;;;18.10;;
45730;SDS011;31440;48.584;13.460;2023-03-03T13:20:16;35.72;;;19.98;;
45730;SDS011;31440;48.584;13.460;2023-03-03T13:23:34;36.97;;;20.23;;
45730;SDS011;31440;48.584;13.460;2023-03-03T13:26:44;34.13;;;18.63;;
45730;SDS011;31440;48.584;13.460;2023-03-03T13:29:59;34.05;;;19.58;;
45730;SDS011;31440;48.584;13.460;2023-03-03T13:36:18;33.85;;;20.13;;
45730;SDS011;31440;48.584;13.460;2023-03-03T13:39:29;33.58;;;20.65;;
45730;SDS011;31440;48.584;13.460;2023-03-03T13:46:26;38.35;;;20.08;;
45730;SDS011;31440;48.584;13.460;2023-03-03T14:03:39;28.50;;;16.27;;
45730;SDS011;31440;48.584;13.460;2023-03-03T14:07:07;29.65;;;16.58;;
45730;SDS011;31440;48.584;13.460;2023-03-03T14:13:30;33.47;;;17.00;;
45730;SDS011;31440;48.584;13.460;2023-03-03T14:20:18;26.13;;;17.08;;
45730;SDS011;31440;48.584;13.460;2023-03-03T14:26:54;25.63;;;16.33;;
45730;SDS011;31440;48.584;13.460;2023-03-03T14:33:32;28.40;;;16.58;;
45730;SDS011;31440;48.584;13.460;2023-03-03T14:36:38;29.98;;;16.67;;
45730;SDS011;31440;48.584;13.460;2023-03-03T14:39:46;37.17;;;19.35;;
45730;SDS011;31440;48.584;13.460;2023-03-03T14:43:25;30.02;;;17.88;;
45730;SDS011;31440;48.584;13.460;2023-03-03T14:46:39;33.63;;;19.13;;
45730;SDS011;31440;48.584;13.460;2023-03-03T14:49:44;25.25;;;15.93;;
45730;SDS011;31440;48.584;13.460;2023-03-03T14:53:01;29.65;;;16.95;;
45730;SDS011;31440;48.584;13.460;2023-03-03T14:56:27;27.85;;;17.25;;
45730;SDS011;31440;48.584;13.460;2023-03-03T14:59:33;31.08;;;19.00;;
45730;SDS011;31440;48.584;13.460;2023-03-03T15:06:03;34.53;;;18.50;;
45730;SDS011;31440;48.584;13.460;2023-03-03T15:12:37;31.52;;;18.92;;
45730;SDS011;31440;48.584;13.460;2023-03-03T15:19:06;31.92;;;17.80;;
45730;SDS011;31440;48.584;13.460;2023-03-03T15:33:14;28.58;;;16.58;;
45730;SDS011;31440;48.584;13.460;2023-03-03T15:36:46;30.95;;;17.80;;
45730;SDS011;31440;48.584;13.460;2023-03-03T15:43:33;31.48;;;18.88;;
45730;SDS011;31440;48.584;13.460;2023-03-03T15:56:58;29.67;;;17.60;;
45730;SDS011;31440;48.584;13.460;2023-03-03T16:03:38;34.40;;;18.92;;
45730;SDS011;31440;48.584;13.460;2023-03-03T16:07:12;34.38;;;19.42;;
45730;SDS011;31440;48.584;13.460;2023-03-03T16:20:36;35.70;;;19.85;;
45730;SDS011;31440;48.584;13.460;2023-03-03T16:23:48;43.63;;;19.83;;
45730;SDS011;31440;48.584;13.460;2023-03-03T16:34:00;29.52;;;17.55;;
45730;SDS011;31440;48.584;13.460;2023-03-03T16:37:33;25.40;;;13.90;;
45730;SDS011;31440;48.584;13.460;2023-03-03T16:40:44;29.20;;;15.77;;
45730;SDS011;31440;48.584;13.460;2023-03-03T17:07:12;27.63;;;14.88;;
45730;SDS011;31440;48.584;13.460;2023-03-03T17:10:26;33.83;;;16.42;;
45730;SDS011;31440;48.584;13.460;2023-03-03T17:13:41;34.35;;;16.45;;
45730;SDS011;31440;48.584;13.460;2023-03-03T17:30:07;37.67;;;18.77;;
45730;SDS011;31440;48.584;13.460;2023-03-03T17:43:50;39.95;;;21.30;;
45730;SDS011;31440;48.584;13.460;2023-03-03T17:47:15;39.58;;;20.17;;
45730;SDS011;31440;48.584;13.460;2023-03-03T18:12:24;41.65;;;22.20;;
45730;SDS011;31440;48.584;13.460;2023-03-03T18:15:55;43.15;;;22.40;;
45730;SDS011;31440;48.584;13.460;2023-03-03T18:22:44;47.63;;;23.48;;
45730;SDS011;31440;48.584;13.460;2023-03-03T18:25:54;46.55;;;24.17;;
45730;SDS011;31440;48.584;13.460;2023-03-03T18:32:17;45.00;;;25.08;;
45730;SDS011;31440;48.584;13.460;2023-03-03T18:38:33;46.72;;;25.45;;
45730;SDS011;31440;48.584;13.460;2023-03-03T18:48:44;51.03;;;25.60;;
45730;SDS011;31440;48.584;13.460;2023-03-03T18:52:12;48.35;;;26.70;;
45730;SDS011;31440;48.584;13.460;2023-03-03T18:55:21;54.90;;;27.63;;
45730;SDS011;31440;48.584;13.460;2023-03-03T18:58:29;50.33;;;26.70;;
45730;SDS011;31440;48.584;13.460;2023-03-03T19:01:41;48.95;;;24.90;;
45730;SDS011;31440;48.584;13.460;2023-03-03T19:04:51;50.33;;;26.90;;
45730;SDS011;31440;48.584;13.460;2023-03-03T19:08:00;52.67;;;26.73;;
45730;SDS011;31440;48.584;13.460;2023-03-03T19:17:57;57.67;;;28.33;;
45730;SDS011;31440;48.584;13.460;2023-03-03T19:21:05;55.33;;;28.60;;
45730;SDS011;31440;48.584;13.460;2023-03-03T19:24:30;55.50;;;28.13;;
45730;SDS011;31440;48.584;13.460;2023-03-03T19:31:10;63.72;;;30.83;;
45730;SDS011;31440;48.584;13.460;2023-03-03T19:47:52;61.22;;;31.25;;
45730;SDS011;31440;48.584;13.460;2023-03-03T20:01:08;66.88;;;27.80;;
45730;SDS011;31440;48.584;13.460;2023-03-03T20:08:37;57.08;;;27.85;;
45730;SDS011;31440;48.584;13.460;2023-03-03T20:15:11;55.05;;;28.55;;
45730;SDS011;31440;48.584;13.460;2023-03-03T20:18:31;51.50;;;29.27;;
45730;SDS011;31440;48.584;13.460;2023-03-03T20:22:00;51.50;;;26.60;;
45730;SDS011;31440;48.584;13.460;2023-03-03T20:31:49;51.03;;;27.45;;
45730;SDS011;31440;48.584;13.460;2023-03-03T20:35:35;53.53;;;26.08;;
45730;SDS011;31440;48.584;13.460;2023-03-03T20:39:01;56.42;;;28.38;;
45730;SDS011;31440;48.584;13.460;2023-03-03T20:42:14;52.53;;;25.85;;
45730;SDS011;31440;48.584;13.460;2023-03-03T20:45:32;47.05;;;24.45;;
45730;SDS011;31440;48.584;13.460;2023-03-03T20:48:57;46.30;;;23.40;;
45730;SDS011;31440;48.584;13.460;2023-03-03T20:52:13;46.75;;;25.85;;
45730;SDS011;31440;48.584;13.460;2023-03-03T20:55:32;48.42;;;24.30;;
45730;SDS011;31440;48.584;13.460;2023-03-03T21:02:15;47.80;;;24.08;;
45730;SDS011;31440;48.584;13.460;2023-03-03T21:05:22;49.22;;;23.88;;
45730;SDS011;31440;48.584;13.460;2023-03-03T21:14:40;48.67;;;23.88;;
45730;SDS011;31440;48.584;13.460;2023-03-03T21:17:45;50.63;;;26.02;;
45730;SDS011;31440;48.584;13.460;2023-03-03T21:20:50;48.80;;;25.08;;
45730;SDS011;31440;48.584;13.460;2023-03-03T21:23:54;50.58;;;25.52;;
45730;SDS011;31440;48.584;13.460;2023-03-03T21:30:12;54.17;;;26.08;;
45730;SDS011;31440;48.584;13.460;2023-03-03T21:39:39;48.70;;;25.27;;
45730;SDS011;31440;48.584;13.460;2023-03-03T21:42:45;47.05;;;25.00;;
45730;SDS011;31440;48.584;13.460;2023-03-03T21:45:50;51.17;;;25.50;;
45730;SDS011;31440;48.584;13.460;2023-03-03T21:48:54;51.95;;;25.35;;
45730;SDS011;31440;48.584;13.460;2023-03-03T21:51:59;48.80;;;23.65;;
45730;SDS011;31440;48.584;13.460;2023-03-03T21:55:04;42.92;;;22.70;;
45730;SDS011;31440;48.584;13.460;2023-03-03T21:58:09;46.58;;;23.58;;
45730;SDS011;31440;48.584;13.460;2023-03-03T22:01:14;45.80;;;22.05;;
45730;SDS011;31440;48.584;13.460;2023-03-03T22:04:18;45.05;;;24.00;;
45730;SDS011;31440;48.584;13.460;2023-03-03T22:07:23;41.05;;;21.85;;
45730;SDS011;31440;48.584;13.460;2023-03-03T22:10:28;46.28;;;22.75;;
45730;SDS011;31440;48.584;13.460;2023-03-03T22:13:32;56.50;;;26.13;;
45730;SDS011;31440;48.584;13.460;2023-03-03T22:16:37;47.20;;;24.73;;
45730;SDS011;31440;48.584;13.460;2023-03-03T22:19:42;49.50;;;25.83;;
45730;SDS011;31440;48.584;13.460;2023-03-03T22:22:46;52.20;;;24.45;;
45730;SDS011;31440;48.584;13.460;2023-03-03T22:25:53;46.28;;;22.77;;
45730;SDS011;31440;48.584;13.460;2023-03-03T22:28:57;52.70;;;25.13;;
45730;SDS011;31440;48.584;13.460;2023-03-03T22:32:02;47.10;;;23.98;;
45730;SDS011;31440;48.584;13.460;2023-03-03T22:35:07;46.58;;;22.95;;
45730;SDS011;31440;48.584;13.460;2023-03-03T22:38:14;59.15;;;27.75;;
45730;SDS011;31440;48.584;13.460;2023-03-03T22:41:19;49.97;;;25.77;;
45730;SDS011;31440;48.584;13.460;2023-03-03T22:44:24;48.95;;;24.92;;
45730;SDS011;31440;48.584;13.460;2023-03-03T22:47:28;49.28;;;24.25;;
45730;SDS011;31440;48.584;13.460;2023-03-03T22:50:33;51.25;;;25.35;;
45730;SDS011;31440;48.584;13.460;2023-03-03T22:53:42;42.90;;;21.92;;
45730;SDS011;31440;48.584;13.460;2023-03-03T22:56:47;46.70;;;23.55;;
45730;SDS011;31440;48.584;13.460;2023-03-03T22:59:51;43.35;;;21.80;;
45730;SDS011;31440;48.584;13.460;2023-03-03T23:02:56;41.33;;;21.55;;
45730;SDS011;31440;48.584;13.460;2023-03-03T23:06:01;40.17;;;19.25;;
45730;SDS011;31440;48.584;13.460;2023-03-03T23:09:05;43.22;;;21.20;;
45730;SDS011;31440;48.584;13.460;2023-03-03T23:12:10;41.30;;;20.95;;
45730;SDS011;31440;48.584;13.460;2023-03-03T23:15:15;44.58;;;21.60;;
45730;SDS011;31440;48.584;13.460;2023-03-03T23:18:20;42.95;;;22.05;;
45730;SDS011;31440;48.584;13.460;2023-03-03T23:21:24;39.20;;;19.65;;
45730;SDS011;31440;48.584;13.460;2023-03-03T23:24:29;38.70;;;18.80;;
45730;SDS011;31440;48.584;13.460;2023-03-03T23:27:33;34.75;;;19.45;;
45730;SDS011;31440;48.584;13.460;2023-03-03T23:30:38;36.28;;;18.73;;
45730;SDS011;31440;48.584;13.460;2023-03-03T23:33:42;35.72;;;18.40;;
45730;SDS011;31440;48.584;13.460;2023-03-03T23:39:53;32.05;;;18.23;;
45730;SDS011;31440;48.584;13.460;2023-03-03T23:42:58;31.75;;;16.63;;
45730;SDS011;31440;48.584;13.460;2023-03-03T23:46:02;34.20;;;18.23;;
45730;SDS011;31440;48.584;13.460;2023-03-03T23:52:13;47.63;;;21.77;;
45730;SDS011;31440;48.584;13.460;2023-03-03T23:55:17;42.65;;;22.20;;
45730;SDS011;31440;48.584;13.460;2023-03-03T23:58:22;40.28;;;21.92;;
